Pagrindinis puslapis
METAR-TAF:

METAR-TAF

Oro uostai :

Nakashibetsu, Japonija

platuma: 43-34N, ilguma: 144-58E, Aukštis: 66 m

Dabartinis oras

Ataskaita buvo paskelbta 1 valandą ir 57 minutes, ne 09:00 UTC
Vėjas 1 kt nuo kintamojo kryptimis
Temperatūra -1°C
Drėgmė 69%
Slėgis 1016 hPa
Matomumas 10 km arba daugiau
Mažai debesys ne aukštis 2500 ft
Išsisklaidę debesys ne aukštis 6000 ft
Su prošvaistėmis

METAR: RJCN 290900Z VRB01KT 9999 FEW025 SCT060 BKN/// M01/M06 Q1016

Laikas: 19:57 (10:57 UTC)


TAF: trūkstamas

Orai ataskaitas ir orų prognozės (METAR, TAF).

turimą stotys yra geltonos ir raudonos taškus žemėlapyje.

Perkelti pele per norėdami pamatyti stoties vardą.

Tada spustelėkite, norėdami matyti oro stebėjimo ir prognozės.

Norėdami pakeisti žemėlapį: spustelėkite ant žalios mygtukų su juodo kryžiaus žemyn,; žalią mygtuką su brūkšneliu, jei norite nutolinti; arba žalių rodyklių gretimoms žemėlapius.


METAR-TAF: